sensor_id;sensor_type;location;lat;lon;timestamp;P1;durP1;ratioP1;P2;durP2;ratioP2
65535;SDS011;52145;49.342;9.116;2023-03-11T07:13:48;3.83;;;1.30;;
65535;SDS011;52145;49.342;9.116;2023-03-11T07:16:21;5.47;;;2.20;;
65535;SDS011;52145;49.342;9.116;2023-03-11T07:18:49;7.10;;;1.70;;
65535;SDS011;52145;49.342;9.116;2023-03-11T07:21:17;6.82;;;2.08;;
65535;SDS011;52145;49.342;9.116;2023-03-11T07:23:44;4.88;;;1.70;;
65535;SDS011;52145;49.342;9.116;2023-03-11T07:26:11;5.25;;;1.73;;
65535;SDS011;52145;49.342;9.116;2023-03-11T07:28:39;6.53;;;1.38;;
65535;SDS011;52145;49.342;9.116;2023-03-11T07:31:05;8.88;;;2.53;;
65535;SDS011;52145;49.342;9.116;2023-03-11T07:41:15;8.38;;;2.25;;
65535;SDS011;52145;49.342;9.116;2023-03-11T07:43:41;9.13;;;1.85;;
65535;SDS011;52145;49.342;9.116;2023-03-11T07:46:08;8.55;;;2.03;;
65535;SDS011;52145;49.342;9.116;2023-03-11T07:51:45;9.38;;;1.77;;
65535;SDS011;52145;49.342;9.116;2023-03-11T07:54:11;5.35;;;1.70;;
65535;SDS011;52145;49.342;9.116;2023-03-11T07:56:37;4.25;;;1.80;;
65535;SDS011;52145;49.342;9.116;2023-03-11T07:59:03;5.88;;;1.52;;
65535;SDS011;52145;49.342;9.116;2023-03-11T08:01:29;7.47;;;1.80;;
65535;SDS011;52145;49.342;9.116;2023-03-11T08:03:59;4.15;;;1.60;;
65535;SDS011;52145;49.342;9.116;2023-03-11T08:06:27;6.38;;;1.40;;
65535;SDS011;52145;49.342;9.116;2023-03-11T08:08:55;5.03;;;1.55;;
65535;SDS011;52145;49.342;9.116;2023-03-11T08:11:22;4.20;;;1.60;;
65535;SDS011;52145;49.342;9.116;2023-03-11T08:13:48;8.45;;;2.08;;
65535;SDS011;52145;49.342;9.116;2023-03-11T08:16:15;7.75;;;3.03;;
65535;SDS011;52145;49.342;9.116;2023-03-11T08:18:43;14.70;;;4.10;;
65535;SDS011;52145;49.342;9.116;2023-03-11T08:21:13;5.93;;;2.38;;
65535;SDS011;52145;49.342;9.116;2023-03-11T08:23:41;4.72;;;1.52;;
65535;SDS011;52145;49.342;9.116;2023-03-11T08:26:08;5.95;;;1.38;;
65535;SDS011;52145;49.342;9.116;2023-03-11T08:28:35;7.93;;;1.60;;
65535;SDS011;52145;49.342;9.116;2023-03-11T08:31:02;8.35;;;1.85;;
65535;SDS011;52145;49.342;9.116;2023-03-11T08:33:35;4.07;;;1.38;;
65535;SDS011;52145;49.342;9.116;2023-03-11T08:36:01;8.27;;;2.28;;
65535;SDS011;52145;49.342;9.116;2023-03-11T08:38:26;7.75;;;1.58;;
65535;SDS011;52145;49.342;9.116;2023-03-11T08:40:52;7.32;;;1.95;;
65535;SDS011;52145;49.342;9.116;2023-03-11T08:43:18;7.07;;;2.17;;
65535;SDS011;52145;49.342;9.116;2023-03-11T08:45:44;5.57;;;1.63;;
65535;SDS011;52145;49.342;9.116;2023-03-11T08:48:09;5.43;;;1.65;;
65535;SDS011;52145;49.342;9.116;2023-03-11T08:50:36;10.73;;;2.33;;
65535;SDS011;52145;49.342;9.116;2023-03-11T08:53:03;8.73;;;1.55;;
65535;SDS011;52145;49.342;9.116;2023-03-11T08:55:29;10.45;;;1.80;;
65535;SDS011;52145;49.342;9.116;2023-03-11T08:57:54;10.20;;;1.50;;
65535;SDS011;52145;49.342;9.116;2023-03-11T09:00:20;9.60;;;2.47;;
65535;SDS011;52145;49.342;9.116;2023-03-11T09:02:46;5.85;;;2.58;;
65535;SDS011;52145;49.342;9.116;2023-03-11T09:05:13;7.97;;;1.60;;
65535;SDS011;52145;49.342;9.116;2023-03-11T09:07:38;6.43;;;2.00;;
65535;SDS011;52145;49.342;9.116;2023-03-11T09:10:04;8.43;;;1.90;;
65535;SDS011;52145;49.342;9.116;2023-03-11T09:12:31;9.88;;;2.08;;
65535;SDS011;52145;49.342;9.116;2023-03-11T09:14:56;4.70;;;1.52;;
65535;SDS011;52145;49.342;9.116;2023-03-11T09:17:22;5.85;;;2.10;;
65535;SDS011;52145;49.342;9.116;2023-03-11T09:19:47;5.97;;;1.42;;
65535;SDS011;52145;49.342;9.116;2023-03-11T09:22:13;6.88;;;1.25;;
65535;SDS011;52145;49.342;9.116;2023-03-11T09:24:38;6.80;;;1.30;;
65535;SDS011;52145;49.342;9.116;2023-03-11T09:27:04;4.95;;;1.30;;
65535;SDS011;52145;49.342;9.116;2023-03-11T09:29:29;5.28;;;1.38;;
65535;SDS011;52145;49.342;9.116;2023-03-11T09:31:55;3.72;;;1.40;;
65535;SDS011;52145;49.342;9.116;2023-03-11T09:34:21;3.83;;;1.50;;
65535;SDS011;52145;49.342;9.116;2023-03-11T09:36:47;5.15;;;1.73;;
65535;SDS011;52145;49.342;9.116;2023-03-11T09:39:12;3.75;;;1.30;;
65535;SDS011;52145;49.342;9.116;2023-03-11T09:45:14;5.68;;;1.40;;
65535;SDS011;52145;49.342;9.116;2023-03-11T09:47:19;4.70;;;1.23;;
65535;SDS011;52145;49.342;9.116;2023-03-11T09:52:50;5.65;;;1.98;;
65535;SDS011;52145;49.342;9.116;2023-03-11T09:55:23;7.55;;;1.58;;
65535;SDS011;52145;49.342;9.116;2023-03-11T09:58:02;4.40;;;1.30;;
65535;SDS011;52145;49.342;9.116;2023-03-11T10:00:34;3.55;;;1.05;;
65535;SDS011;52145;49.342;9.116;2023-03-11T10:03:00;5.80;;;1.30;;
65535;SDS011;52145;49.342;9.116;2023-03-11T10:05:27;3.58;;;1.15;;
65535;SDS011;52145;49.342;9.116;2023-03-11T10:07:57;9.93;;;1.38;;
65535;SDS011;52145;49.342;9.116;2023-03-11T10:10:27;4.53;;;1.08;;
65535;SDS011;52145;49.342;9.116;2023-03-11T10:15:42;5.93;;;0.95;;
65535;SDS011;52145;49.342;9.116;2023-03-11T10:18:39;4.20;;;1.00;;
65535;SDS011;52145;49.342;9.116;2023-03-11T10:22:00;4.32;;;1.23;;
65535;SDS011;52145;49.342;9.116;2023-03-11T10:24:16;4.97;;;1.00;;
65535;SDS011;52145;49.342;9.116;2023-03-11T10:26:44;4.63;;;1.20;;
65535;SDS011;52145;49.342;9.116;2023-03-11T10:34:40;5.75;;;1.38;;
65535;SDS011;52145;49.342;9.116;2023-03-11T10:40:29;7.60;;;1.73;;
65535;SDS011;52145;49.342;9.116;2023-03-11T10:43:02;5.78;;;1.45;;
65535;SDS011;52145;49.342;9.116;2023-03-11T10:45:32;6.85;;;1.42;;
65535;SDS011;52145;49.342;9.116;2023-03-11T10:48:07;2.53;;;0.93;;
65535;SDS011;52145;49.342;9.116;2023-03-11T10:50:34;4.55;;;1.20;;
65535;SDS011;52145;49.342;9.116;2023-03-11T10:53:04;9.32;;;1.38;;
65535;SDS011;52145;49.342;9.116;2023-03-11T10:55:34;5.40;;;1.20;;
65535;SDS011;52145;49.342;9.116;2023-03-11T10:58:12;2.42;;;0.70;;
65535;SDS011;52145;49.342;9.116;2023-03-11T11:00:40;7.93;;;1.33;;
65535;SDS011;52145;49.342;9.116;2023-03-11T11:03:11;2.92;;;1.35;;
65535;SDS011;52145;49.342;9.116;2023-03-11T11:05:55;5.72;;;1.15;;
65535;SDS011;52145;49.342;9.116;2023-03-11T11:08:31;3.50;;;0.75;;
65535;SDS011;52145;49.342;9.116;2023-03-11T11:10:58;2.80;;;1.38;;
65535;SDS011;52145;49.342;9.116;2023-03-11T11:13:27;2.25;;;1.02;;
65535;SDS011;52145;49.342;9.116;2023-03-11T11:15:59;3.95;;;1.42;;
65535;SDS011;52145;49.342;9.116;2023-03-11T11:21:33;4.75;;;0.85;;
65535;SDS011;52145;49.342;9.116;2023-03-11T11:24:23;3.53;;;1.17;;
65535;SDS011;52145;49.342;9.116;2023-03-11T11:27:03;6.57;;;1.25;;
65535;SDS011;52145;49.342;9.116;2023-03-11T11:29:29;2.30;;;0.75;;
65535;SDS011;52145;49.342;9.116;2023-03-11T11:32:09;5.47;;;1.27;;
65535;SDS011;52145;49.342;9.116;2023-03-11T11:34:37;2.88;;;1.00;;
65535;SDS011;52145;49.342;9.116;2023-03-11T11:37:03;6.53;;;1.17;;
65535;SDS011;52145;49.342;9.116;2023-03-11T11:39:43;4.15;;;0.90;;
65535;SDS011;52145;49.342;9.116;2023-03-11T11:42:15;6.30;;;1.23;;
65535;SDS011;52145;49.342;9.116;2023-03-11T11:44:42;5.85;;;1.15;;
65535;SDS011;52145;49.342;9.116;2023-03-11T11:47:20;2.75;;;1.25;;
65535;SDS011;52145;49.342;9.116;2023-03-11T11:49:53;4.05;;;1.08;;
65535;SDS011;52145;49.342;9.116;2023-03-11T11:52:29;3.38;;;1.02;;
65535;SDS011;52145;49.342;9.116;2023-03-11T11:55:03;3.85;;;0.90;;
65535;SDS011;52145;49.342;9.116;2023-03-11T11:57:31;3.83;;;1.30;;
65535;SDS011;52145;49.342;9.116;2023-03-11T11:59:57;5.88;;;1.27;;
65535;SDS011;52145;49.342;9.116;2023-03-11T12:10:11;3.92;;;1.17;;
65535;SDS011;52145;49.342;9.116;2023-03-11T12:15:23;3.33;;;1.10;;
65535;SDS011;52145;49.342;9.116;2023-03-11T12:17:53;4.90;;;1.63;;
65535;SDS011;52145;49.342;9.116;2023-03-11T12:20:28;3.15;;;1.50;;
65535;SDS011;52145;49.342;9.116;2023-03-11T12:28:30;4.13;;;1.00;;
65535;SDS011;52145;49.342;9.116;2023-03-11T12:31:01;5.35;;;1.35;;
65535;SDS011;52145;49.342;9.116;2023-03-11T12:36:04;2.88;;;1.23;;
65535;SDS011;52145;49.342;9.116;2023-03-11T12:38:34;4.70;;;1.85;;
65535;SDS011;52145;49.342;9.116;2023-03-11T12:41:45;5.35;;;1.77;;
65535;SDS011;52145;49.342;9.116;2023-03-11T12:43:56;1.40;;;0.80;;
65535;SDS011;52145;49.342;9.116;2023-03-11T12:46:57;2.50;;;1.10;;
65535;SDS011;52145;49.342;9.116;2023-03-11T12:49:23;8.18;;;1.88;;
65535;SDS011;52145;49.342;9.116;2023-03-11T12:57:12;5.18;;;1.30;;
65535;SDS011;52145;49.342;9.116;2023-03-11T13:02:50;3.67;;;1.10;;
65535;SDS011;52145;49.342;9.116;2023-03-11T13:05:28;3.58;;;0.90;;
65535;SDS011;52145;49.342;9.116;2023-03-11T13:10:46;4.68;;;1.02;;
65535;SDS011;52145;49.342;9.116;2023-03-11T13:15:56;5.45;;;1.50;;
65535;SDS011;52145;49.342;9.116;2023-03-11T13:18:42;3.50;;;1.30;;
65535;SDS011;52145;49.342;9.116;2023-03-11T13:23:52;4.80;;;1.23;;
65535;SDS011;52145;49.342;9.116;2023-03-11T13:37:29;5.63;;;1.25;;
65535;SDS011;52145;49.342;9.116;2023-03-11T13:42:49;4.22;;;1.08;;
65535;SDS011;52145;49.342;9.116;2023-03-11T13:47:55;5.43;;;1.40;;
65535;SDS011;52145;49.342;9.116;2023-03-11T13:50:40;3.50;;;1.38;;
65535;SDS011;52145;49.342;9.116;2023-03-11T13:53:16;2.97;;;1.15;;
65535;SDS011;52145;49.342;9.116;2023-03-11T13:55:47;6.25;;;1.23;;
65535;SDS011;52145;49.342;9.116;2023-03-11T13:58:19;5.15;;;1.52;;
65535;SDS011;52145;49.342;9.116;2023-03-11T14:00:51;7.30;;;1.50;;
65535;SDS011;52145;49.342;9.116;2023-03-11T14:03:26;3.47;;;1.35;;
65535;SDS011;52145;49.342;9.116;2023-03-11T14:05:56;3.30;;;1.20;;
65535;SDS011;52145;49.342;9.116;2023-03-11T14:10:56;3.90;;;1.27;;
65535;SDS011;52145;49.342;9.116;2023-03-11T14:13:26;3.47;;;1.35;;
65535;SDS011;52145;49.342;9.116;2023-03-11T14:16:03;3.53;;;1.85;;
65535;SDS011;52145;49.342;9.116;2023-03-11T14:18:33;3.22;;;0.80;;
65535;SDS011;52145;49.342;9.116;2023-03-11T14:21:01;3.10;;;0.95;;
65535;SDS011;52145;49.342;9.116;2023-03-11T14:23:32;4.47;;;1.42;;
65535;SDS011;52145;49.342;9.116;2023-03-11T14:26:00;2.42;;;0.88;;
65535;SDS011;52145;49.342;9.116;2023-03-11T14:28:30;6.22;;;2.25;;
65535;SDS011;52145;49.342;9.116;2023-03-11T14:31:00;5.40;;;1.30;;
65535;SDS011;52145;49.342;9.116;2023-03-11T14:33:26;3.90;;;0.75;;
65535;SDS011;52145;49.342;9.116;2023-03-11T14:35:53;5.75;;;1.30;;
65535;SDS011;52145;49.342;9.116;2023-03-11T14:38:24;6.80;;;1.33;;
65535;SDS011;52145;49.342;9.116;2023-03-11T14:40:52;5.40;;;1.27;;
65535;SDS011;52145;49.342;9.116;2023-03-11T14:43:22;4.72;;;1.50;;
65535;SDS011;52145;49.342;9.116;2023-03-11T14:45:49;3.95;;;1.98;;
65535;SDS011;52145;49.342;9.116;2023-03-11T14:48:21;8.35;;;1.40;;
65535;SDS011;52145;49.342;9.116;2023-03-11T14:51:03;8.20;;;1.30;;
65535;SDS011;52145;49.342;9.116;2023-03-11T14:53:36;2.72;;;0.95;;
65535;SDS011;52145;49.342;9.116;2023-03-11T14:56:07;5.05;;;1.73;;
65535;SDS011;52145;49.342;9.116;2023-03-11T14:58:40;3.45;;;1.42;;
65535;SDS011;52145;49.342;9.116;2023-03-11T15:01:16;2.35;;;1.00;;
65535;SDS011;52145;49.342;9.116;2023-03-11T15:03:48;6.07;;;1.65;;
65535;SDS011;52145;49.342;9.116;2023-03-11T15:06:36;4.65;;;1.33;;
65535;SDS011;52145;49.342;9.116;2023-03-11T15:09:09;3.17;;;1.50;;
65535;SDS011;52145;49.342;9.116;2023-03-11T15:11:52;3.15;;;1.42;;
65535;SDS011;52145;49.342;9.116;2023-03-11T15:14:22;5.32;;;1.40;;
65535;SDS011;52145;49.342;9.116;2023-03-11T15:16:49;5.60;;;1.13;;
65535;SDS011;52145;49.342;9.116;2023-03-11T15:19:28;4.20;;;1.90;;
65535;SDS011;52145;49.342;9.116;2023-03-11T15:21:58;4.97;;;1.27;;
65535;SDS011;52145;49.342;9.116;2023-03-11T15:24:47;3.05;;;1.00;;
65535;SDS011;52145;49.342;9.116;2023-03-11T15:27:25;5.53;;;1.77;;
65535;SDS011;52145;49.342;9.116;2023-03-11T15:29:58;3.20;;;1.10;;
65535;SDS011;52145;49.342;9.116;2023-03-11T15:35:00;3.92;;;1.33;;
65535;SDS011;52145;49.342;9.116;2023-03-11T15:37:28;4.70;;;1.35;;
65535;SDS011;52145;49.342;9.116;2023-03-11T15:39:56;4.63;;;1.55;;
65535;SDS011;52145;49.342;9.116;2023-03-11T15:42:22;4.70;;;1.33;;
65535;SDS011;52145;49.342;9.116;2023-03-11T15:47:39;6.05;;;1.50;;
65535;SDS011;52145;49.342;9.116;2023-03-11T15:50:21;4.95;;;1.65;;
65535;SDS011;52145;49.342;9.116;2023-03-11T15:52:50;5.43;;;1.38;;
65535;SDS011;52145;49.342;9.116;2023-03-11T15:55:16;5.38;;;1.23;;
65535;SDS011;52145;49.342;9.116;2023-03-11T15:57:43;3.35;;;0.95;;
65535;SDS011;52145;49.342;9.116;2023-03-11T16:00:17;2.70;;;1.40;;
65535;SDS011;52145;49.342;9.116;2023-03-11T16:02:46;5.00;;;1.48;;
65535;SDS011;52145;49.342;9.116;2023-03-11T16:05:16;3.80;;;1.20;;
65535;SDS011;52145;49.342;9.116;2023-03-11T16:07:44;7.05;;;1.60;;
65535;SDS011;52145;49.342;9.116;2023-03-11T16:10:11;2.90;;;1.05;;
65535;SDS011;52145;49.342;9.116;2023-03-11T16:12:37;3.38;;;1.08;;
65535;SDS011;52145;49.342;9.116;2023-03-11T16:15:03;2.17;;;1.10;;
65535;SDS011;52145;49.342;9.116;2023-03-11T16:17:30;7.32;;;2.28;;
65535;SDS011;52145;49.342;9.116;2023-03-11T16:19:55;6.68;;;1.30;;
65535;SDS011;52145;49.342;9.116;2023-03-11T16:22:23;5.00;;;1.23;;
65535;SDS011;52145;49.342;9.116;2023-03-11T16:24:54;7.80;;;1.52;;
65535;SDS011;52145;49.342;9.116;2023-03-11T16:27:20;3.80;;;1.33;;
65535;SDS011;52145;49.342;9.116;2023-03-11T16:29:46;3.58;;;1.25;;
65535;SDS011;52145;49.342;9.116;2023-03-11T16:32:11;2.15;;;1.10;;
65535;SDS011;52145;49.342;9.116;2023-03-11T16:34:37;3.85;;;1.02;;
65535;SDS011;52145;49.342;9.116;2023-03-11T16:37:04;4.38;;;1.00;;
65535;SDS011;52145;49.342;9.116;2023-03-11T16:39:30;6.35;;;1.27;;
65535;SDS011;52145;49.342;9.116;2023-03-11T16:41:55;4.82;;;1.48;;
65535;SDS011;52145;49.342;9.116;2023-03-11T16:44:21;3.83;;;1.40;;
65535;SDS011;52145;49.342;9.116;2023-03-11T16:46:46;4.50;;;1.45;;
65535;SDS011;52145;49.342;9.116;2023-03-11T16:49:12;5.63;;;1.40;;
65535;SDS011;52145;49.342;9.116;2023-03-11T16:51:37;7.30;;;1.42;;
65535;SDS011;52145;49.342;9.116;2023-03-11T16:54:03;5.25;;;1.55;;
65535;SDS011;52145;49.342;9.116;2023-03-11T16:56:28;7.10;;;1.75;;
65535;SDS011;52145;49.342;9.116;2023-03-11T16:58:54;5.32;;;1.33;;
65535;SDS011;52145;49.342;9.116;2023-03-11T17:01:20;4.40;;;1.60;;
65535;SDS011;52145;49.342;9.116;2023-03-11T17:03:46;5.35;;;1.52;;
65535;SDS011;52145;49.342;9.116;2023-03-11T17:06:13;3.30;;;1.52;;
65535;SDS011;52145;49.342;9.116;2023-03-11T17:08:40;4.40;;;1.40;;
65535;SDS011;52145;49.342;9.116;2023-03-11T17:11:12;4.93;;;1.52;;
65535;SDS011;52145;49.342;9.116;2023-03-11T17:13:39;3.83;;;1.67;;
65535;SDS011;52145;49.342;9.116;2023-03-11T17:16:04;5.88;;;1.77;;
65535;SDS011;52145;49.342;9.116;2023-03-11T17:18:30;6.00;;;2.05;;
65535;SDS011;52145;49.342;9.116;2023-03-11T17:20:56;7.45;;;2.20;;
65535;SDS011;52145;49.342;9.116;2023-03-11T17:23:21;8.10;;;2.08;;
65535;SDS011;52145;49.342;9.116;2023-03-11T17:25:47;12.82;;;4.50;;
65535;SDS011;52145;49.342;9.116;2023-03-11T17:28:12;4.80;;;2.03;;
65535;SDS011;52145;49.342;9.116;2023-03-11T17:30:41;5.32;;;2.20;;
65535;SDS011;52145;49.342;9.116;2023-03-11T17:33:08;4.50;;;2.05;;
65535;SDS011;52145;49.342;9.116;2023-03-11T17:35:33;8.43;;;1.83;;
65535;SDS011;52145;49.342;9.116;2023-03-11T17:37:59;5.60;;;1.38;;
65535;SDS011;52145;49.342;9.116;2023-03-11T17:40:25;2.50;;;1.40;;
65535;SDS011;52145;49.342;9.116;2023-03-11T17:42:53;3.17;;;1.67;;
65535;SDS011;52145;49.342;9.116;2023-03-11T17:45:18;4.22;;;1.60;;
65535;SDS011;52145;49.342;9.116;2023-03-11T17:47:44;4.25;;;1.70;;
65535;SDS011;52145;49.342;9.116;2023-03-11T17:50:09;4.68;;;2.50;;
65535;SDS011;52145;49.342;9.116;2023-03-11T17:52:36;4.32;;;1.52;;
65535;SDS011;52145;49.342;9.116;2023-03-11T17:55:01;4.90;;;1.63;;
65535;SDS011;52145;49.342;9.116;2023-03-11T17:57:27;7.35;;;1.60;;
65535;SDS011;52145;49.342;9.116;2023-03-11T17:59:52;6.20;;;1.52;;
65535;SDS011;52145;49.342;9.116;2023-03-11T18:02:18;7.47;;;1.35;;
65535;SDS011;52145;49.342;9.116;2023-03-11T18:04:47;6.03;;;2.00;;
65535;SDS011;52145;49.342;9.116;2023-03-11T18:07:15;8.75;;;3.15;;
65535;SDS011;52145;49.342;9.116;2023-03-11T18:09:42;9.00;;;3.70;;
65535;SDS011;52145;49.342;9.116;2023-03-11T18:12:08;7.13;;;2.85;;
65535;SDS011;52145;49.342;9.116;2023-03-11T18:14:34;13.48;;;2.75;;
65535;SDS011;52145;49.342;9.116;2023-03-11T18:17:00;9.43;;;2.92;;
65535;SDS011;52145;49.342;9.116;2023-03-11T18:19:26;17.55;;;4.40;;
65535;SDS011;52145;49.342;9.116;2023-03-11T18:21:51;7.30;;;2.90;;
65535;SDS011;52145;49.342;9.116;2023-03-11T18:24:17;6.00;;;2.92;;
65535;SDS011;52145;49.342;9.116;2023-03-11T18:26:42;7.93;;;4.07;;
65535;SDS011;52145;49.342;9.116;2023-03-11T18:29:08;6.43;;;4.07;;
65535;SDS011;52145;49.342;9.116;2023-03-11T18:31:34;7.03;;;3.58;;
65535;SDS011;52145;49.342;9.116;2023-03-11T18:34:01;7.90;;;3.60;;
65535;SDS011;52145;49.342;9.116;2023-03-11T18:36:29;9.57;;;3.35;;
65535;SDS011;52145;49.342;9.116;2023-03-11T18:38:56;9.57;;;3.28;;
65535;SDS011;52145;49.342;9.116;2023-03-11T18:41:23;9.70;;;3.78;;
65535;SDS011;52145;49.342;9.116;2023-03-11T18:43:50;12.73;;;3.75;;
65535;SDS011;52145;49.342;9.116;2023-03-11T18:46:21;9.73;;;3.35;;
65535;SDS011;52145;49.342;9.116;2023-03-11T18:48:47;6.15;;;2.95;;
65535;SDS011;52145;49.342;9.116;2023-03-11T18:51:13;7.30;;;3.28;;
65535;SDS011;52145;49.342;9.116;2023-03-11T18:53:40;10.57;;;3.45;;
65535;SDS011;52145;49.342;9.116;2023-03-11T18:56:06;6.78;;;3.05;;
65535;SDS011;52145;49.342;9.116;2023-03-11T18:58:34;6.55;;;3.25;;
65535;SDS011;52145;49.342;9.116;2023-03-11T19:01:13;7.88;;;3.20;;
65535;SDS011;52145;49.342;9.116;2023-03-11T19:03:41;5.30;;;2.53;;
65535;SDS011;52145;49.342;9.116;2023-03-11T19:06:07;7.88;;;3.60;;
65535;SDS011;52145;49.342;9.116;2023-03-11T19:08:34;6.10;;;3.15;;
65535;SDS011;52145;49.342;9.116;2023-03-11T19:11:04;9.80;;;3.55;;
65535;SDS011;52145;49.342;9.116;2023-03-11T19:13:33;10.35;;;3.92;;
65535;SDS011;52145;49.342;9.116;2023-03-11T19:16:02;8.77;;;2.78;;
65535;SDS011;52145;49.342;9.116;2023-03-11T19:18:31;7.25;;;2.72;;
65535;SDS011;52145;49.342;9.116;2023-03-11T19:20:58;6.35;;;3.05;;
65535;SDS011;52145;49.342;9.116;2023-03-11T19:23:25;11.32;;;3.88;;
65535;SDS011;52145;49.342;9.116;2023-03-11T19:25:50;6.30;;;2.97;;
65535;SDS011;52145;49.342;9.116;2023-03-11T19:28:16;6.43;;;2.78;;
65535;SDS011;52145;49.342;9.116;2023-03-11T19:30:42;7.35;;;2.75;;
65535;SDS011;52145;49.342;9.116;2023-03-11T19:33:07;8.57;;;3.45;;
65535;SDS011;52145;49.342;9.116;2023-03-11T19:35:33;12.73;;;3.58;;
65535;SDS011;52145;49.342;9.116;2023-03-11T19:37:59;7.70;;;3.22;;
65535;SDS011;52145;49.342;9.116;2023-03-11T19:40:25;11.57;;;3.10;;
65535;SDS011;52145;49.342;9.116;2023-03-11T19:42:54;8.27;;;3.10;;
65535;SDS011;52145;49.342;9.116;2023-03-11T19:45:20;5.63;;;2.72;;
65535;SDS011;52145;49.342;9.116;2023-03-11T19:47:46;8.55;;;4.38;;
65535;SDS011;52145;49.342;9.116;2023-03-11T19:50:15;9.82;;;3.30;;
65535;SDS011;52145;49.342;9.116;2023-03-11T19:52:41;8.63;;;3.97;;
65535;SDS011;52145;49.342;9.116;2023-03-11T19:55:07;11.23;;;3.95;;
65535;SDS011;52145;49.342;9.116;2023-03-11T19:57:33;8.55;;;3.80;;
65535;SDS011;52145;49.342;9.116;2023-03-11T19:59:58;7.22;;;3.03;;
65535;SDS011;52145;49.342;9.116;2023-03-11T20:02:24;10.98;;;4.18;;
65535;SDS011;52145;49.342;9.116;2023-03-11T20:04:49;8.60;;;4.28;;
65535;SDS011;52145;49.342;9.116;2023-03-11T20:07:15;10.52;;;4.47;;
65535;SDS011;52145;49.342;9.116;2023-03-11T20:09:40;10.00;;;3.97;;
65535;SDS011;52145;49.342;9.116;2023-03-11T20:12:06;10.48;;;3.13;;
65535;SDS011;52145;49.342;9.116;2023-03-11T20:14:31;9.23;;;5.00;;
65535;SDS011;52145;49.342;9.116;2023-03-11T20:16:57;13.20;;;3.80;;
65535;SDS011;52145;49.342;9.116;2023-03-11T20:19:23;13.27;;;4.43;;
65535;SDS011;52145;49.342;9.116;2023-03-11T20:21:48;9.80;;;4.35;;
65535;SDS011;52145;49.342;9.116;2023-03-11T20:24:14;7.25;;;3.80;;
65535;SDS011;52145;49.342;9.116;2023-03-11T20:26:39;6.95;;;3.45;;
65535;SDS011;52145;49.342;9.116;2023-03-11T20:29:05;10.40;;;4.00;;
65535;SDS011;52145;49.342;9.116;2023-03-11T20:31:31;9.40;;;4.00;;
65535;SDS011;52145;49.342;9.116;2023-03-11T20:33:57;7.95;;;4.10;;
65535;SDS011;52145;49.342;9.116;2023-03-11T20:36:24;10.93;;;5.13;;
65535;SDS011;52145;49.342;9.116;2023-03-11T20:38:52;9.50;;;4.50;;
65535;SDS011;52145;49.342;9.116;2023-03-11T20:41:19;13.60;;;4.55;;
65535;SDS011;52145;49.342;9.116;2023-03-11T20:43:47;11.40;;;4.90;;
65535;SDS011;52145;49.342;9.116;2023-03-11T20:46:14;11.77;;;4.53;;
65535;SDS011;52145;49.342;9.116;2023-03-11T20:48:40;9.15;;;3.92;;
65535;SDS011;52145;49.342;9.116;2023-03-11T20:51:07;10.43;;;4.45;;
65535;SDS011;52145;49.342;9.116;2023-03-11T20:53:35;8.38;;;4.07;;
65535;SDS011;52145;49.342;9.116;2023-03-11T20:56:06;9.57;;;4.07;;
65535;SDS011;52145;49.342;9.116;2023-03-11T20:58:34;12.73;;;4.07;;
65535;SDS011;52145;49.342;9.116;2023-03-11T21:01:00;9.00;;;4.18;;
65535;SDS011;52145;49.342;9.116;2023-03-11T21:03:25;8.95;;;4.20;;
65535;SDS011;52145;49.342;9.116;2023-03-11T21:05:51;8.15;;;3.90;;
65535;SDS011;52145;49.342;9.116;2023-03-11T21:08:16;13.35;;;4.53;;
65535;SDS011;52145;49.342;9.116;2023-03-11T21:10:42;9.02;;;3.88;;
65535;SDS011;52145;49.342;9.116;2023-03-11T21:13:07;12.82;;;4.30;;
65535;SDS011;52145;49.342;9.116;2023-03-11T21:15:33;10.18;;;4.07;;
65535;SDS011;52145;49.342;9.116;2023-03-11T21:17:59;9.55;;;4.43;;
65535;SDS011;52145;49.342;9.116;2023-03-11T21:20:26;10.88;;;3.70;;
65535;SDS011;52145;49.342;9.116;2023-03-11T21:22:51;8.98;;;4.07;;
65535;SDS011;52145;49.342;9.116;2023-03-11T21:25:17;9.57;;;4.22;;
65535;SDS011;52145;49.342;9.116;2023-03-11T21:27:42;9.05;;;4.13;;
65535;SDS011;52145;49.342;9.116;2023-03-11T21:30:09;13.70;;;4.18;;
65535;SDS011;52145;49.342;9.116;2023-03-11T21:32:35;8.50;;;3.78;;
65535;SDS011;52145;49.342;9.116;2023-03-11T21:35:01;10.68;;;3.70;;
65535;SDS011;52145;49.342;9.116;2023-03-11T21:37:27;9.40;;;4.00;;
65535;SDS011;52145;49.342;9.116;2023-03-11T21:39:52;6.90;;;3.40;;
65535;SDS011;52145;49.342;9.116;2023-03-11T21:42:18;10.02;;;3.80;;
65535;SDS011;52145;49.342;9.116;2023-03-11T21:44:44;9.02;;;4.60;;
65535;SDS011;52145;49.342;9.116;2023-03-11T21:47:10;9.82;;;4.53;;
65535;SDS011;52145;49.342;9.116;2023-03-11T21:49:36;13.45;;;4.65;;
65535;SDS011;52145;49.342;9.116;2023-03-11T21:52:02;10.80;;;4.32;;
65535;SDS011;52145;49.342;9.116;2023-03-11T21:54:29;8.80;;;4.90;;
65535;SDS011;52145;49.342;9.116;2023-03-11T21:56:55;13.98;;;4.45;;
65535;SDS011;52145;49.342;9.116;2023-03-11T21:59:20;7.70;;;3.65;;
65535;SDS011;52145;49.342;9.116;2023-03-11T22:01:46;10.95;;;3.97;;
65535;SDS011;52145;49.342;9.116;2023-03-11T22:04:11;7.15;;;3.55;;
65535;SDS011;52145;49.342;9.116;2023-03-11T22:06:37;10.63;;;4.57;;
65535;SDS011;52145;49.342;9.116;2023-03-11T22:09:03;12.80;;;5.45;;
65535;SDS011;52145;49.342;9.116;2023-03-11T22:11:28;14.10;;;5.97;;
65535;SDS011;52145;49.342;9.116;2023-03-11T22:13:54;12.27;;;5.05;;
65535;SDS011;52145;49.342;9.116;2023-03-11T22:16:21;14.32;;;6.15;;
65535;SDS011;52145;49.342;9.116;2023-03-11T22:18:48;12.13;;;5.20;;
65535;SDS011;52145;49.342;9.116;2023-03-11T22:21:14;12.68;;;5.65;;
65535;SDS011;52145;49.342;9.116;2023-03-11T22:23:41;10.48;;;4.82;;
65535;SDS011;52145;49.342;9.116;2023-03-11T22:26:07;9.27;;;5.10;;
65535;SDS011;52145;49.342;9.116;2023-03-11T22:28:33;11.05;;;5.95;;
65535;SDS011;52145;49.342;9.116;2023-03-11T22:30:59;11.63;;;5.00;;
65535;SDS011;52145;49.342;9.116;2023-03-11T22:33:28;13.00;;;4.93;;
65535;SDS011;52145;49.342;9.116;2023-03-11T22:35:55;12.15;;;5.20;;
65535;SDS011;52145;49.342;9.116;2023-03-11T22:38:21;9.75;;;4.85;;
65535;SDS011;52145;49.342;9.116;2023-03-11T22:40:47;8.52;;;4.63;;
65535;SDS011;52145;49.342;9.116;2023-03-11T22:43:13;10.05;;;4.75;;
65535;SDS011;52145;49.342;9.116;2023-03-11T22:45:38;8.70;;;4.15;;
65535;SDS011;52145;49.342;9.116;2023-03-11T22:48:04;6.55;;;3.92;;
65535;SDS011;52145;49.342;9.116;2023-03-11T22:50:30;8.45;;;4.50;;
65535;SDS011;52145;49.342;9.116;2023-03-11T22:52:57;11.30;;;4.55;;
65535;SDS011;52145;49.342;9.116;2023-03-11T22:55:23;13.13;;;4.50;;
65535;SDS011;52145;49.342;9.116;2023-03-11T22:57:48;12.00;;;5.10;;
65535;SDS011;52145;49.342;9.116;2023-03-11T23:00:18;13.38;;;5.93;;
65535;SDS011;52145;49.342;9.116;2023-03-11T23:02:46;12.82;;;5.55;;
65535;SDS011;52145;49.342;9.116;2023-03-11T23:05:13;14.23;;;7.13;;
65535;SDS011;52145;49.342;9.116;2023-03-11T23:07:40;11.75;;;5.53;;
65535;SDS011;52145;49.342;9.116;2023-03-11T23:10:06;10.98;;;6.15;;
65535;SDS011;52145;49.342;9.116;2023-03-11T23:12:34;15.13;;;5.95;;
65535;SDS011;52145;49.342;9.116;2023-03-11T23:15:01;11.90;;;6.07;;
65535;SDS011;52145;49.342;9.116;2023-03-11T23:17:27;10.25;;;5.20;;
65535;SDS011;52145;49.342;9.116;2023-03-11T23:19:53;12.68;;;5.45;;
65535;SDS011;52145;49.342;9.116;2023-03-11T23:22:18;11.95;;;5.40;;
65535;SDS011;52145;49.342;9.116;2023-03-11T23:24:44;11.60;;;5.32;;
65535;SDS011;52145;49.342;9.116;2023-03-11T23:27:09;13.73;;;6.00;;
65535;SDS011;52145;49.342;9.116;2023-03-11T23:29:35;9.25;;;5.00;;
65535;SDS011;52145;49.342;9.116;2023-03-11T23:32:00;10.77;;;5.28;;
65535;SDS011;52145;49.342;9.116;2023-03-11T23:34:26;12.52;;;5.30;;
65535;SDS011;52145;49.342;9.116;2023-03-11T23:36:51;8.75;;;4.60;;